Airfield :
LOGIN :

Register | Disclaimer

   EN    FR    IT 

 










Legend :    VFR   Marginal VFR   IFR   Intensive IFR   Very Intensive IFR
Visi :
Ceiling :
>= 8 km
>= 3000ft
5 to 8 km
1000 to 3000 ft
1500m to 5 km
500 to 1000 ft
800 to 1500m
200 to 500 ft
< 800m
< 200 ft
Symbols :   Thunderstorms  Fog  Heavy snow  Heavy precipitations  Wind > 20 kt
SIGMETs :     Misc.  Thunderstorms  Icing  Turbulence  Mountain Waves  Volcanic Ashes






- Airport Elevation : 171 ft
- IATA code : EGC


LFBE - Bergerac

CURRENT METAR :
  • 231800Z AUTO 10004KT 070V130 9999 FEW039 BKN068 15/13 Q1005 TEMPO 2500 -TSRA BKN010 BKN015CB

EXPIRED METARs :
  • 231730Z AUTO 13003KT 060V190 CAVOK 15/13 Q1005 TEMPO 2500 -TSRA BKN010 BKN015CB
  • 231700Z AUTO 00000KT CAVOK 16/14 Q1005 TEMPO 2500 -TSRA BKN010 BKN015CB
  • 231630Z AUTO VRB02KT CAVOK 17/14 Q1005 TEMPO 2500 -TSRA BKN010 BKN015CB
  • 231600Z AUTO 25003KT 210V280 9999 FEW042 OVC068 18/15 Q1005 TEMPO 2500 -TSRA BKN010 BKN015CB
  • 231530Z AUTO 29007KT CAVOK 17/14 Q1004 TEMPO 2500 -TSRA BKN010 BKN015CB

TAF TAF LFBE
Valid from the 23 at 12:00 until the 24 at 12:00 UTC


231100Z 2312/2412 31005KT CAVOK
BECMG 2312/2314 BKN020
TEMPO 2316/2322 4000 -SHRA BKN020TCU
PROB30
TEMPO 2316/2322 2500 -TSRA BKN010 BKN015CB
BECMG 2323/2401 18010KT
BECMG 2408/2410 24010KT 4000 -RA BKN014



MET'MAP, your aeronautical weather chart ! - Copyright ORBIFLY December 2007 - Disclaimer

ORBIFLY MET'MAP TEAM :

Programming & Development : Alexandra Zaïnal
Concept & Development : Baudouin d'Aumeries
Co-Development & Prog : Marc-Olivier Méhu
Technical & hardware support : Manuel Goepfert

Contact : metmap@orbifly.com




SOURCES & CREDITS :

   NOAA